createdAt,value
2023-09-28T00:00:15.639Z,19.10
2023-09-28T00:01:17.273Z,19.10
2023-09-28T00:02:15.749Z,19.11
2023-09-28T00:03:15.645Z,19.14
2023-09-28T00:04:15.611Z,19.11
2023-09-28T00:05:15.616Z,19.10
2023-09-28T00:06:15.588Z,19.13
2023-09-28T00:07:15.626Z,19.13
2023-09-28T00:08:15.827Z,19.11
2023-09-28T00:09:15.545Z,19.11
2023-09-28T00:10:15.607Z,19.07
2023-09-28T00:11:15.573Z,19.08
2023-09-28T00:12:15.508Z,19.08
2023-09-28T00:13:15.507Z,19.04
2023-09-28T00:14:15.526Z,19.02
2023-09-28T00:15:15.476Z,19.02
2023-09-28T00:16:15.505Z,19.02
2023-09-28T00:17:15.555Z,19.06
2023-09-28T00:18:15.465Z,19.06
2023-09-28T00:19:15.431Z,19.04
2023-09-28T00:20:15.568Z,19.04
2023-09-28T00:21:15.430Z,18.99
2023-09-28T00:22:15.403Z,19.02
2023-09-28T00:23:15.426Z,19.06
2023-09-28T00:24:15.396Z,19.07
2023-09-28T00:25:15.549Z,19.10
2023-09-28T00:26:15.393Z,19.11
2023-09-28T00:27:15.348Z,19.11
2023-09-28T00:28:15.369Z,19.16
2023-09-28T00:29:15.397Z,19.16
2023-09-28T00:30:15.454Z,19.16
2023-09-28T00:31:15.476Z,19.16
2023-09-28T00:32:15.332Z,19.13
2023-09-28T00:33:15.291Z,19.11
2023-09-28T00:34:15.303Z,19.08
2023-09-28T00:35:15.282Z,19.08
2023-09-28T00:36:15.276Z,19.10
2023-09-28T00:37:15.247Z,19.08
2023-09-28T00:38:15.293Z,19.08
2023-09-28T00:39:15.257Z,19.08
2023-09-28T00:40:15.229Z,19.06
2023-09-28T00:41:15.232Z,19.06
2023-09-28T00:42:15.208Z,19.04
2023-09-28T00:43:15.181Z,19.00
2023-09-28T00:44:15.260Z,19.00
2023-09-28T00:45:15.164Z,19.04
2023-09-28T00:46:15.187Z,19.06
2023-09-28T00:47:15.202Z,19.07
2023-09-28T00:48:15.241Z,19.08
2023-09-28T00:49:15.140Z,19.07
2023-09-28T00:50:15.151Z,19.11
2023-09-28T00:51:15.225Z,19.13
2023-09-28T00:52:15.098Z,19.11
2023-09-28T00:53:15.136Z,19.10
2023-09-28T00:54:15.118Z,19.10
2023-09-28T00:55:15.062Z,19.08
2023-09-28T00:56:15.122Z,19.07
2023-09-28T00:57:15.067Z,19.04
2023-09-28T00:58:15.049Z,19.02
2023-09-28T00:59:15.059Z,18.99
2023-09-28T01:00:15.020Z,18.95
2023-09-28T01:01:15.014Z,18.92
2023-09-28T01:02:15.064Z,18.91
2023-09-28T01:03:15.072Z,18.90
2023-09-28T01:04:14.978Z,18.88
2023-09-28T01:05:14.989Z,18.87
2023-09-28T01:06:14.968Z,18.84
2023-09-28T01:07:14.972Z,18.82
2023-09-28T01:08:15.011Z,18.80
2023-09-28T01:09:14.922Z,18.75
2023-09-28T01:10:14.906Z,18.72
2023-09-28T01:11:14.921Z,18.72
2023-09-28T01:12:14.896Z,18.69
2023-09-28T01:13:14.871Z,18.65
2023-09-28T01:14:14.898Z,18.62
2023-09-28T01:15:14.903Z,18.58
2023-09-28T01:16:14.914Z,18.57
2023-09-28T01:17:15.037Z,18.55
2023-09-28T01:18:14.926Z,18.57
2023-09-28T01:19:14.816Z,18.55
2023-09-28T01:20:14.819Z,18.52
2023-09-28T01:21:14.792Z,18.51
2023-09-28T01:22:14.785Z,18.48
2023-09-28T01:23:15.074Z,18.47
2023-09-28T01:24:14.766Z,18.44
2023-09-28T01:25:14.745Z,18.42
2023-09-28T01:26:14.790Z,18.41
2023-09-28T01:27:14.767Z,18.39
2023-09-28T01:28:14.712Z,18.36
2023-09-28T01:29:14.742Z,18.35
2023-09-28T01:30:14.710Z,18.33
2023-09-28T01:31:14.734Z,18.27
2023-09-28T01:32:14.715Z,18.27
2023-09-28T01:33:14.652Z,18.26
2023-09-28T01:34:14.658Z,18.23
2023-09-28T01:35:14.750Z,18.23
2023-09-28T01:36:14.629Z,18.21
2023-09-28T01:37:14.612Z,18.20
2023-09-28T01:38:14.677Z,18.18
2023-09-28T01:39:14.600Z,18.17
2023-09-28T01:40:14.656Z,18.17
2023-09-28T01:41:14.638Z,18.15
2023-09-28T01:42:14.555Z,18.12
2023-09-28T01:43:14.561Z,18.11
2023-09-28T01:44:14.547Z,18.11
2023-09-28T01:45:14.533Z,18.08
2023-09-28T01:46:14.535Z,18.07
2023-09-28T01:47:14.549Z,18.03
2023-09-28T01:48:14.496Z,18.02
2023-09-28T01:49:14.499Z,18.00
2023-09-28T01:50:14.531Z,17.99
2023-09-28T01:51:14.471Z,17.97
2023-09-28T01:52:14.448Z,17.96
2023-09-28T01:53:14.467Z,17.96
2023-09-28T01:54:14.461Z,17.93
2023-09-28T01:55:14.421Z,17.93
2023-09-28T01:56:14.426Z,17.93
2023-09-28T01:57:14.402Z,17.93
2023-09-28T01:58:14.389Z,17.90
2023-09-28T01:59:14.476Z,17.90
2023-09-28T02:00:14.377Z,17.92
2023-09-28T02:01:14.385Z,17.93
2023-09-28T02:02:14.400Z,17.95
2023-09-28T02:03:14.413Z,17.95
2023-09-28T02:04:14.438Z,17.93
2023-09-28T02:05:14.393Z,17.93
2023-09-28T02:06:14.302Z,17.93
2023-09-28T02:07:14.289Z,17.92
2023-09-28T02:08:14.356Z,17.92
2023-09-28T02:09:14.275Z,17.92
2023-09-28T02:10:14.272Z,17.90
2023-09-28T02:11:14.275Z,17.89
2023-09-28T02:12:14.267Z,17.89
2023-09-28T02:13:14.233Z,17.90
2023-09-28T02:14:14.286Z,17.89
2023-09-28T02:15:14.217Z,17.93
2023-09-28T02:16:14.228Z,17.95
2023-09-28T02:17:14.264Z,17.93
2023-09-28T02:18:14.170Z,18.00
2023-09-28T02:19:14.165Z,18.00
2023-09-28T02:20:14.202Z,18.00
2023-09-28T02:21:14.164Z,18.02
2023-09-28T02:22:14.147Z,18.07
2023-09-28T02:23:14.190Z,18.07
2023-09-28T02:24:14.126Z,18.05
2023-09-28T02:25:14.102Z,18.03
2023-09-28T02:26:14.241Z,18.05
2023-09-28T02:27:14.096Z,18.07
2023-09-28T02:28:14.069Z,18.05
2023-09-28T02:29:14.099Z,18.07
2023-09-28T02:30:14.049Z,18.10
2023-09-28T02:31:14.079Z,18.07
2023-09-28T02:32:14.041Z,18.05
2023-09-28T02:33:14.068Z,18.02
2023-09-28T02:34:13.999Z,18.02
2023-09-28T02:35:14.048Z,18.00
2023-09-28T02:36:13.989Z,18.00
2023-09-28T02:37:14.159Z,18.02
2023-09-28T02:38:13.990Z,18.03
2023-09-28T02:39:13.950Z,18.02
2023-09-28T02:40:13.953Z,18.02
2023-09-28T02:41:13.957Z,18.00
2023-09-28T02:42:13.931Z,18.00
2023-09-28T02:43:13.908Z,18.00
2023-09-28T02:44:14.004Z,17.99
2023-09-28T02:45:14.110Z,17.99
2023-09-28T02:46:13.992Z,17.97
2023-09-28T02:47:13.966Z,17.97
2023-09-28T02:48:14.006Z,17.96
2023-09-28T02:49:13.848Z,17.95
2023-09-28T02:50:13.896Z,17.95
2023-09-28T02:51:13.847Z,17.93
2023-09-28T02:52:13.808Z,17.93
2023-09-28T02:53:13.811Z,17.92
2023-09-28T02:54:13.813Z,17.92
2023-09-28T02:55:13.805Z,17.92
2023-09-28T02:56:13.840Z,17.92
2023-09-28T02:57:13.761Z,17.90
2023-09-28T02:58:13.752Z,17.89
2023-09-28T02:59:13.763Z,17.89
2023-09-28T03:00:13.886Z,17.86
2023-09-28T03:01:13.751Z,17.84
2023-09-28T03:02:13.723Z,17.82
2023-09-28T03:03:13.746Z,17.79
2023-09-28T03:04:13.728Z,17.78
2023-09-28T03:05:13.719Z,17.77
2023-09-28T03:06:13.652Z,17.75
2023-09-28T03:07:13.652Z,17.74
2023-09-28T03:08:13.713Z,17.72
2023-09-28T03:09:13.634Z,17.74
2023-09-28T03:10:13.665Z,17.72
2023-09-28T03:11:13.692Z,17.71
2023-09-28T03:12:13.600Z,17.68
2023-09-28T03:13:13.594Z,17.66
2023-09-28T03:14:13.580Z,17.63
2023-09-28T03:15:13.647Z,17.59
2023-09-28T03:16:13.620Z,17.59
2023-09-28T03:17:13.591Z,17.56
2023-09-28T03:18:13.581Z,17.55
2023-09-28T03:19:13.514Z,17.55
2023-09-28T03:20:13.541Z,17.54
2023-09-28T03:21:13.539Z,17.54
2023-09-28T03:22:13.678Z,17.52
2023-09-28T03:23:13.539Z,17.54
2023-09-28T03:24:13.454Z,17.51
2023-09-28T03:25:13.446Z,17.51
2023-09-28T03:26:13.450Z,17.48
2023-09-28T03:27:13.424Z,17.44
2023-09-28T03:28:13.411Z,17.43
2023-09-28T03:29:13.426Z,17.40
2023-09-28T03:30:13.391Z,17.38
2023-09-28T03:31:13.423Z,17.37
2023-09-28T03:32:13.451Z,17.34
2023-09-28T03:33:13.378Z,17.33
2023-09-28T03:34:13.352Z,17.26
2023-09-28T03:35:13.692Z,17.23
2023-09-28T03:36:13.353Z,17.19
2023-09-28T03:37:13.323Z,17.18
2023-09-28T03:38:13.463Z,17.15
2023-09-28T03:39:13.293Z,17.12
2023-09-28T03:40:13.578Z,17.07
2023-09-28T03:41:13.305Z,17.03
2023-09-28T03:42:13.260Z,17.01
2023-09-28T03:43:13.238Z,16.98
2023-09-28T03:44:13.262Z,16.96
2023-09-28T03:45:13.221Z,16.93
2023-09-28T03:46:13.355Z,16.89
2023-09-28T03:47:13.215Z,16.89
2023-09-28T03:48:13.245Z,16.88
2023-09-28T03:49:13.211Z,16.86
2023-09-28T03:50:13.312Z,16.86
2023-09-28T03:51:13.167Z,16.85
2023-09-28T03:52:13.153Z,16.81
2023-09-28T03:53:13.188Z,16.81
2023-09-28T03:54:13.155Z,16.76
2023-09-28T03:55:13.123Z,16.76
2023-09-28T03:56:13.150Z,16.76
2023-09-28T03:57:13.087Z,16.75
2023-09-28T03:58:13.081Z,16.73
2023-09-28T03:59:13.122Z,16.68
2023-09-28T04:00:13.077Z,16.66
2023-09-28T04:01:13.063Z,16.63
2023-09-28T04:02:13.065Z,16.60
2023-09-28T04:03:13.043Z,16.57
2023-09-28T04:04:13.159Z,16.53
2023-09-28T04:05:13.231Z,16.50
2023-09-28T04:06:12.995Z,16.48
2023-09-28T04:07:13.032Z,16.45
2023-09-28T04:08:12.981Z,16.43
2023-09-28T04:09:12.966Z,16.39
2023-09-28T04:10:13.246Z,16.34
2023-09-28T04:11:12.965Z,16.33
2023-09-28T04:12:13.016Z,16.31
2023-09-28T04:13:12.920Z,16.27
2023-09-28T04:14:13.000Z,16.24
2023-09-28T04:15:12.893Z,16.21
2023-09-28T04:16:12.904Z,16.17
2023-09-28T04:17:13.925Z,16.14
2023-09-28T04:18:12.909Z,16.11
2023-09-28T04:19:12.861Z,16.08
2023-09-28T04:20:12.921Z,16.09
2023-09-28T04:21:12.824Z,16.05
2023-09-28T04:22:12.846Z,16.07
2023-09-28T04:23:12.852Z,16.07
2023-09-28T04:24:12.867Z,16.08
2023-09-28T04:25:12.780Z,16.11
2023-09-28T04:26:12.807Z,16.09
2023-09-28T04:27:12.759Z,16.14
2023-09-28T04:28:12.796Z,16.23
2023-09-28T04:29:12.759Z,16.33
2023-09-28T04:30:12.738Z,16.45
2023-09-28T04:31:12.737Z,16.42
2023-09-28T04:32:12.751Z,16.42
2023-09-28T04:33:12.734Z,16.43
2023-09-28T04:34:12.722Z,16.39
2023-09-28T04:35:12.728Z,16.35
2023-09-28T04:36:14.198Z,16.34
2023-09-28T04:37:12.669Z,16.31
2023-09-28T04:38:12.742Z,16.28
2023-09-28T04:39:12.632Z,16.25
2023-09-28T04:40:12.637Z,16.20
2023-09-28T04:41:12.765Z,16.15
2023-09-28T04:42:15.573Z,16.12
2023-09-28T04:43:12.602Z,16.07
2023-09-28T04:44:12.669Z,16.05
2023-09-28T04:45:12.561Z,16.04
2023-09-28T04:46:12.636Z,16.00
2023-09-28T04:47:12.931Z,16.02
2023-09-28T04:48:12.559Z,16.04
2023-09-28T04:49:12.573Z,16.02
2023-09-28T04:50:12.557Z,16.00
2023-09-28T04:51:12.514Z,15.96
2023-09-28T04:52:12.559Z,15.93
2023-09-28T04:53:12.500Z,15.90
2023-09-28T04:54:12.575Z,15.86
2023-09-28T04:55:12.471Z,15.82
2023-09-28T04:56:12.536Z,15.80
2023-09-28T04:57:12.446Z,15.78
2023-09-28T04:58:12.432Z,15.75
2023-09-28T04:59:12.472Z,15.83
2023-09-28T05:00:12.468Z,15.87
2023-09-28T05:01:12.458Z,15.90
2023-09-28T05:02:12.428Z,15.92
2023-09-28T05:03:12.388Z,15.90
2023-09-28T05:04:12.480Z,15.89
2023-09-28T05:05:12.410Z,15.93
2023-09-28T05:06:12.466Z,15.94
2023-09-28T05:07:12.333Z,15.94
2023-09-28T05:08:12.370Z,15.93
2023-09-28T05:09:12.307Z,15.93
2023-09-28T05:10:12.322Z,16.00
2023-09-28T05:11:12.343Z,16.04
2023-09-28T05:12:12.285Z,16.12
2023-09-28T05:13:12.269Z,16.17
2023-09-28T05:14:12.333Z,16.14
2023-09-28T05:15:12.336Z,16.14
2023-09-28T05:16:12.277Z,16.17
2023-09-28T05:17:12.244Z,16.15
2023-09-28T05:18:12.264Z,16.20
2023-09-28T05:19:12.209Z,16.24
2023-09-28T05:20:12.310Z,16.24
2023-09-28T05:21:12.193Z,16.23
2023-09-28T05:22:12.188Z,16.21
2023-09-28T05:23:12.196Z,16.20
2023-09-28T05:24:12.199Z,16.14
2023-09-28T05:25:12.162Z,16.07
2023-09-28T05:26:12.150Z,16.01
2023-09-28T05:27:12.127Z,16.00
2023-09-28T05:28:12.120Z,15.96
2023-09-28T05:29:12.137Z,15.94
2023-09-28T05:30:12.257Z,15.90
2023-09-28T05:31:12.101Z,15.87
2023-09-28T05:32:12.222Z,15.83
2023-09-28T05:33:12.116Z,15.78
2023-09-28T05:34:12.062Z,15.76
2023-09-28T05:35:12.082Z,15.74
2023-09-28T05:36:12.032Z,15.74
2023-09-28T05:37:12.016Z,15.72
2023-09-28T05:38:12.068Z,15.68
2023-09-28T05:39:11.994Z,15.68
2023-09-28T05:40:12.013Z,15.67
2023-09-28T05:41:11.996Z,15.65
2023-09-28T05:42:11.974Z,15.67
2023-09-28T05:43:11.965Z,15.65
2023-09-28T05:44:14.177Z,15.62
2023-09-28T05:45:11.953Z,15.57
2023-09-28T05:46:11.935Z,15.54
2023-09-28T05:47:11.951Z,15.51
2023-09-28T05:48:11.931Z,15.51
2023-09-28T05:49:11.886Z,15.51
2023-09-28T05:50:11.910Z,15.50
2023-09-28T05:51:11.858Z,15.53
2023-09-28T05:52:11.977Z,15.53
2023-09-28T05:53:12.013Z,15.53
2023-09-28T05:54:11.828Z,15.49
2023-09-28T05:55:11.825Z,15.49
2023-09-28T05:56:11.929Z,15.44
2023-09-28T05:57:11.827Z,15.43
2023-09-28T05:58:11.800Z,15.41
2023-09-28T05:59:11.850Z,15.38
2023-09-28T06:00:11.763Z,15.38
2023-09-28T06:01:11.785Z,15.39
2023-09-28T06:02:11.837Z,15.43
2023-09-28T06:03:11.931Z,15.46
2023-09-28T06:04:11.801Z,15.50
2023-09-28T06:05:11.768Z,15.59
2023-09-28T06:06:11.700Z,15.64
2023-09-28T06:07:11.703Z,15.69
2023-09-28T06:08:11.704Z,15.75
2023-09-28T06:09:11.660Z,15.78
2023-09-28T06:10:11.705Z,15.82
2023-09-28T06:11:12.807Z,15.76
2023-09-28T06:12:11.649Z,15.74
2023-09-28T06:13:11.622Z,15.69
2023-09-28T06:14:11.685Z,15.68
2023-09-28T06:15:11.614Z,15.67
2023-09-28T06:16:11.689Z,15.67
2023-09-28T06:17:11.642Z,15.65
2023-09-28T06:18:11.752Z,15.62
2023-09-28T06:19:11.559Z,15.62
2023-09-28T06:20:11.606Z,15.62
2023-09-28T06:21:11.534Z,15.59
2023-09-28T06:22:11.529Z,15.59
2023-09-28T06:23:11.550Z,15.57
2023-09-28T06:24:11.545Z,15.59
2023-09-28T06:25:11.502Z,15.59
2023-09-28T06:26:12.247Z,15.57
2023-09-28T06:27:11.507Z,15.56
2023-09-28T06:28:11.483Z,15.57
2023-09-28T06:29:11.570Z,15.59
2023-09-28T06:30:11.473Z,15.60
2023-09-28T06:31:11.465Z,15.62
2023-09-28T06:32:11.487Z,15.67
2023-09-28T06:33:11.446Z,15.72
2023-09-28T06:34:11.443Z,15.80
2023-09-28T06:35:11.576Z,15.83
2023-09-28T06:36:11.417Z,15.87
2023-09-28T06:37:11.420Z,15.93
2023-09-28T06:38:11.383Z,15.96
2023-09-28T06:39:11.487Z,16.05
2023-09-28T06:40:11.354Z,16.14
2023-09-28T06:41:11.350Z,16.20
2023-09-28T06:42:25.135Z,16.25
2023-09-28T06:43:12.306Z,16.28
2023-09-28T06:44:11.432Z,16.33
2023-09-28T06:45:11.276Z,16.34
2023-09-28T06:46:11.308Z,16.42
2023-09-28T06:47:11.297Z,16.49
2023-09-28T06:48:19.923Z,16.56
2023-09-28T06:49:12.267Z,16.61
2023-09-28T06:50:11.242Z,16.66
2023-09-28T06:51:11.206Z,16.71
2023-09-28T06:52:11.207Z,16.81
2023-09-28T06:53:11.294Z,16.88
2023-09-28T06:54:11.980Z,16.96
2023-09-28T06:55:11.165Z,17.01
2023-09-28T06:56:14.424Z,17.00
2023-09-28T06:57:11.161Z,17.01
2023-09-28T06:58:11.156Z,17.01
2023-09-28T06:59:11.166Z,17.03
2023-09-28T07:00:11.121Z,17.08
2023-09-28T07:01:11.141Z,17.15
2023-09-28T07:02:11.164Z,17.18
2023-09-28T07:03:11.174Z,17.21
2023-09-28T07:04:11.087Z,17.28
2023-09-28T07:05:11.125Z,17.38
2023-09-28T07:06:11.052Z,17.49
2023-09-28T07:07:11.049Z,17.52
2023-09-28T07:08:11.094Z,17.56
2023-09-28T07:09:11.010Z,17.62
2023-09-28T07:10:11.011Z,17.71
2023-09-28T07:11:11.034Z,17.81
2023-09-28T07:12:11.001Z,17.79
2023-09-28T07:13:10.966Z,17.87
2023-09-28T07:14:10.979Z,17.90
2023-09-28T07:15:10.942Z,17.99
2023-09-28T07:16:11.022Z,18.03
2023-09-28T07:17:10.958Z,18.12
2023-09-28T07:18:10.988Z,18.14
2023-09-28T07:19:10.923Z,18.12
2023-09-28T07:20:10.987Z,18.17
2023-09-28T07:21:10.884Z,18.18
2023-09-28T07:22:10.886Z,18.20
2023-09-28T07:23:10.862Z,18.26
2023-09-28T07:24:19.098Z,18.32
2023-09-28T07:25:11.857Z,18.35
2023-09-28T07:26:11.103Z,18.39
2023-09-28T07:27:10.804Z,18.41
2023-09-28T07:28:10.884Z,18.50
2023-09-28T07:29:10.821Z,18.51
2023-09-28T07:30:10.797Z,18.55
2023-09-28T07:31:10.789Z,18.58
2023-09-28T07:32:10.802Z,18.66
2023-09-28T07:33:10.873Z,18.73
2023-09-28T07:34:10.793Z,18.80
2023-09-28T07:35:10.997Z,18.85
2023-09-28T07:36:10.815Z,18.91
2023-09-28T07:37:10.700Z,18.95
2023-09-28T07:38:10.770Z,19.00
2023-09-28T07:39:10.678Z,19.07
2023-09-28T07:40:10.679Z,19.13
2023-09-28T07:41:10.764Z,19.18
2023-09-28T07:42:10.646Z,19.29
2023-09-28T07:43:10.644Z,19.43
2023-09-28T07:44:10.697Z,19.51
2023-09-28T07:45:10.610Z,19.63
2023-09-28T07:46:10.624Z,19.73
2023-09-28T07:47:10.631Z,19.81
2023-09-28T07:48:10.704Z,19.88
2023-09-28T07:49:10.609Z,19.94
2023-09-28T07:50:10.598Z,19.98
2023-09-28T07:51:10.544Z,20.03
2023-09-28T07:52:10.548Z,20.11
2023-09-28T07:53:10.578Z,20.16
2023-09-28T07:54:10.537Z,20.17
2023-09-28T07:55:10.510Z,20.21
2023-09-28T07:56:10.529Z,20.24
2023-09-28T07:57:10.478Z,20.18
2023-09-28T07:58:23.948Z,20.14
2023-09-28T07:59:11.490Z,20.18
2023-09-28T08:00:10.494Z,20.26
2023-09-28T08:01:10.546Z,20.35
2023-09-28T08:02:10.444Z,20.43
2023-09-28T08:03:10.479Z,20.50
2023-09-28T08:04:10.439Z,20.51
2023-09-28T08:05:10.412Z,20.54
2023-09-28T08:06:21.169Z,20.55
2023-09-28T08:07:11.669Z,20.69
2023-09-28T08:08:16.647Z,20.84
2023-09-28T08:09:11.343Z,21.01
2023-09-28T08:10:10.404Z,21.12
2023-09-28T08:11:10.531Z,21.13
2023-09-28T08:12:10.342Z,21.17
2023-09-28T08:13:13.325Z,21.22
2023-09-28T08:14:10.401Z,21.22
2023-09-28T08:15:19.909Z,21.24
2023-09-28T08:16:11.313Z,21.25
2023-09-28T08:17:10.372Z,21.27
2023-09-28T08:18:10.825Z,21.29
2023-09-28T08:19:10.248Z,21.29
2023-09-28T08:20:10.268Z,21.32
2023-09-28T08:21:11.065Z,21.29
2023-09-28T08:22:10.269Z,21.27
2023-09-28T08:23:10.206Z,21.27
2023-09-28T08:24:10.200Z,21.32
2023-09-28T08:25:10.183Z,21.32
2023-09-28T08:26:10.300Z,21.32
2023-09-28T08:27:10.174Z,21.34
2023-09-28T08:28:10.168Z,21.31
2023-09-28T08:29:10.217Z,21.28
2023-09-28T08:30:10.133Z,21.35
2023-09-28T08:31:10.179Z,21.44
2023-09-28T08:32:10.156Z,21.54
2023-09-28T08:33:10.121Z,21.61
2023-09-28T08:34:10.104Z,21.69
2023-09-28T08:35:10.159Z,21.69
2023-09-28T08:36:10.984Z,21.67
2023-09-28T08:37:10.131Z,21.71
2023-09-28T08:38:10.175Z,21.77
2023-09-28T08:39:10.155Z,21.84
2023-09-28T08:40:10.041Z,21.91
2023-09-28T08:41:10.117Z,21.96
2023-09-28T08:42:10.017Z,22.02
2023-09-28T08:43:09.986Z,21.99
2023-09-28T08:44:10.022Z,22.06
2023-09-28T08:45:10.204Z,22.17
2023-09-28T08:46:09.991Z,22.18
2023-09-28T08:47:09.983Z,22.20
2023-09-28T08:48:09.974Z,22.17
2023-09-28T08:49:09.994Z,22.21
2023-09-28T08:50:10.043Z,22.30
2023-09-28T08:51:09.953Z,22.36
2023-09-28T08:52:09.951Z,22.40
2023-09-28T08:53:09.936Z,22.47
2023-09-28T08:54:09.960Z,22.49
2023-09-28T08:55:09.938Z,22.57
2023-09-28T08:56:09.928Z,22.62
2023-09-28T08:57:09.853Z,22.64
2023-09-28T08:58:09.832Z,22.72
2023-09-28T08:59:09.865Z,22.73
2023-09-28T09:00:09.863Z,22.73
2023-09-28T09:01:09.817Z,22.73
2023-09-28T09:02:09.839Z,22.73
2023-09-28T09:03:10.050Z,22.70
2023-09-28T09:04:09.813Z,22.64
2023-09-28T09:05:10.004Z,22.58
2023-09-28T09:06:09.742Z,22.57
2023-09-28T09:07:09.755Z,22.62
2023-09-28T09:08:09.783Z,22.65
2023-09-28T09:09:09.728Z,22.65
2023-09-28T09:10:09.726Z,22.60
2023-09-28T09:11:09.731Z,22.61
2023-09-28T09:12:09.687Z,22.68
2023-09-28T09:13:09.706Z,22.76
2023-09-28T09:14:09.752Z,22.82
2023-09-28T09:15:09.671Z,22.88
2023-09-28T09:16:09.706Z,22.92
2023-09-28T09:17:13.168Z,22.98
2023-09-28T09:18:09.733Z,23.05
2023-09-28T09:19:09.621Z,23.09
2023-09-28T09:20:09.757Z,23.12
2023-09-28T09:21:09.592Z,23.15
2023-09-28T09:22:09.858Z,23.23
2023-09-28T09:23:09.810Z,23.28
2023-09-28T09:24:09.557Z,23.36
2023-09-28T09:25:09.551Z,23.43
2023-09-28T09:26:09.618Z,23.51
2023-09-28T09:27:09.533Z,23.57
2023-09-28T09:28:09.634Z,23.58
2023-09-28T09:29:09.540Z,23.60
2023-09-28T09:30:09.533Z,23.58
2023-09-28T09:31:09.768Z,23.58
2023-09-28T09:32:09.557Z,23.57
2023-09-28T09:33:09.496Z,23.61
2023-09-28T09:34:09.468Z,23.61
2023-09-28T09:35:09.510Z,23.61
2023-09-28T09:36:09.490Z,23.65
2023-09-28T09:37:09.447Z,23.72
2023-09-28T09:38:09.476Z,23.83
2023-09-28T09:39:09.404Z,23.93
2023-09-28T09:40:09.408Z,24.00
2023-09-28T09:41:09.501Z,23.95
2023-09-28T09:42:09.678Z,23.88
2023-09-28T09:43:09.504Z,23.76
2023-09-28T09:44:09.410Z,23.78
2023-09-28T09:45:09.345Z,23.83
2023-09-28T09:46:09.582Z,23.87
2023-09-28T09:47:09.492Z,23.88
2023-09-28T09:48:09.403Z,23.90
2023-09-28T09:49:09.313Z,23.94
2023-09-28T09:50:09.667Z,23.97
2023-09-28T09:51:09.327Z,24.00
2023-09-28T09:52:09.278Z,23.95
2023-09-28T09:53:09.418Z,23.93
2023-09-28T09:54:09.282Z,23.87
2023-09-28T09:55:09.385Z,23.80
2023-09-28T09:56:09.358Z,23.66
2023-09-28T09:57:09.222Z,23.55
2023-09-28T09:58:09.309Z,23.46
2023-09-28T09:59:09.247Z,23.46
2023-09-28T10:00:09.218Z,23.36
2023-09-28T10:01:09.195Z,23.39
2023-09-28T10:02:09.187Z,23.32
2023-09-28T10:03:09.192Z,23.36
2023-09-28T10:04:09.185Z,23.39
2023-09-28T10:05:09.180Z,23.48
2023-09-28T10:06:09.141Z,23.66
2023-09-28T10:07:09.242Z,23.76
2023-09-28T10:08:09.172Z,23.78
2023-09-28T10:09:09.115Z,23.84
2023-09-28T10:10:09.115Z,23.88
2023-09-28T10:11:09.091Z,23.91
2023-09-28T10:12:09.079Z,23.90
2023-09-28T10:13:09.085Z,23.93
2023-09-28T10:14:09.334Z,23.93
2023-09-28T10:15:09.044Z,23.97
2023-09-28T10:16:09.045Z,24.00
2023-09-28T10:17:09.137Z,24.03
2023-09-28T10:18:09.173Z,24.08
2023-09-28T10:19:09.009Z,24.22
2023-09-28T10:20:09.031Z,24.40
2023-09-28T10:21:08.982Z,24.45
2023-09-28T10:22:08.987Z,24.52
2023-09-28T10:23:09.066Z,24.57
2023-09-28T10:24:09.008Z,24.58
2023-09-28T10:25:08.961Z,24.67
2023-09-28T10:26:11.605Z,24.77
2023-09-28T10:27:09.002Z,24.77
2023-09-28T10:28:08.938Z,24.78
2023-09-28T10:29:08.980Z,24.84
2023-09-28T10:30:08.909Z,24.90
2023-09-28T10:31:08.939Z,24.84
2023-09-28T10:32:08.969Z,24.64
2023-09-28T10:33:08.960Z,24.40
2023-09-28T10:34:08.925Z,24.25
2023-09-28T10:35:08.973Z,24.28
2023-09-28T10:36:08.863Z,24.32
2023-09-28T10:37:09.532Z,24.18
2023-09-28T10:38:08.856Z,24.18
2023-09-28T10:39:08.815Z,24.20
2023-09-28T10:40:08.819Z,24.21
2023-09-28T10:41:08.816Z,24.16
2023-09-28T10:42:09.232Z,24.20
2023-09-28T10:43:08.774Z,24.25
2023-09-28T10:44:08.787Z,24.35
2023-09-28T10:45:08.751Z,24.35
2023-09-28T10:46:08.925Z,24.39
2023-09-28T10:47:08.809Z,24.37
2023-09-28T10:48:08.789Z,24.18
2023-09-28T10:49:08.711Z,24.08
2023-09-28T10:50:09.836Z,24.05
2023-09-28T10:51:08.700Z,24.12
2023-09-28T10:52:08.731Z,24.16
2023-09-28T10:53:09.272Z,24.27
2023-09-28T10:54:08.671Z,24.35
2023-09-28T10:55:08.661Z,24.31
2023-09-28T10:56:08.933Z,24.35
2023-09-28T10:57:08.639Z,24.43
2023-09-28T10:58:08.688Z,24.55
2023-09-28T10:59:09.863Z,24.58
2023-09-28T11:00:08.718Z,24.60
2023-09-28T11:01:08.606Z,24.49
2023-09-28T11:02:09.394Z,24.52
2023-09-28T11:03:08.661Z,24.55
2023-09-28T11:04:08.698Z,24.50
2023-09-28T11:05:08.845Z,24.39
2023-09-28T11:06:08.734Z,24.32
2023-09-28T11:07:08.660Z,24.24
2023-09-28T11:08:08.551Z,24.24
2023-09-28T11:09:08.530Z,24.32
2023-09-28T11:10:08.534Z,24.34
2023-09-28T11:11:09.219Z,24.46
2023-09-28T11:12:08.547Z,24.53
2023-09-28T11:19:58.916Z,25.02
2023-09-28T11:20:58.875Z,24.95
2023-09-28T11:21:58.863Z,24.91
2023-09-28T11:22:58.860Z,24.84
2023-09-28T11:23:58.841Z,24.77
2023-09-28T11:24:58.941Z,24.62
2023-09-28T11:25:58.833Z,24.50
2023-09-28T11:26:58.786Z,24.50
2023-09-28T11:27:58.770Z,24.52
2023-09-28T11:28:58.863Z,24.55
2023-09-28T11:29:58.855Z,24.64
2023-09-28T11:30:58.815Z,24.73
2023-09-28T11:31:58.899Z,24.81
2023-09-28T11:32:58.897Z,24.85
2023-09-28T11:33:58.731Z,24.88
2023-09-28T11:34:58.767Z,24.93
2023-09-28T11:35:58.786Z,24.96
2023-09-28T11:36:58.702Z,24.95
2023-09-28T11:37:58.709Z,25.00
2023-09-28T11:38:58.683Z,25.02
2023-09-28T11:39:58.705Z,24.99
2023-09-28T11:40:58.720Z,24.95
2023-09-28T11:41:58.689Z,24.95
2023-09-28T11:42:58.643Z,25.03
2023-09-28T11:43:59.003Z,25.06
2023-09-28T11:44:58.666Z,25.03
2023-09-28T11:45:58.667Z,25.05
2023-09-28T11:46:58.667Z,25.14
2023-09-28T11:47:58.831Z,25.24
2023-09-28T11:48:58.615Z,25.27
2023-09-28T11:49:58.622Z,25.21
2023-09-28T11:50:58.584Z,25.15
2023-09-28T11:51:58.580Z,25.05
2023-09-28T11:52:58.617Z,25.05
2023-09-28T11:53:58.526Z,24.99
2023-09-28T11:54:58.533Z,24.95
2023-09-28T11:55:58.538Z,24.85
2023-09-28T11:56:58.698Z,24.88
2023-09-28T11:57:58.537Z,25.00
2023-09-28T11:58:58.547Z,25.03
2023-09-28T11:59:58.513Z,25.03
2023-09-28T12:00:58.476Z,25.05
2023-09-28T12:01:58.599Z,25.00
2023-09-28T12:02:58.663Z,24.90
2023-09-28T12:03:58.863Z,24.81
2023-09-28T12:04:58.526Z,24.73
2023-09-28T12:05:58.474Z,24.62
2023-09-28T12:06:58.430Z,24.60
2023-09-28T12:07:58.456Z,24.64
2023-09-28T12:08:58.401Z,24.77
2023-09-28T12:10:04.844Z,24.77
2023-09-28T12:10:59.460Z,24.67
2023-09-28T12:11:58.372Z,24.60
2023-09-28T12:12:58.357Z,24.52
2023-09-28T12:13:58.341Z,24.49
2023-09-28T12:14:58.369Z,24.50
2023-09-28T12:15:58.368Z,24.50
2023-09-28T12:16:58.407Z,24.55
2023-09-28T12:17:58.410Z,24.67
2023-09-28T12:18:58.373Z,24.73
2023-09-28T12:19:58.401Z,24.80
2023-09-28T12:20:58.295Z,24.77
2023-09-28T12:21:58.275Z,24.76
2023-09-28T12:22:58.334Z,24.65
2023-09-28T12:23:58.251Z,24.53
2023-09-28T12:24:58.264Z,24.43
2023-09-28T12:25:58.294Z,24.43
2023-09-28T12:26:58.219Z,24.45
2023-09-28T12:27:58.216Z,24.47
2023-09-28T12:28:58.376Z,24.47
2023-09-28T12:29:58.203Z,24.42
2023-09-28T12:30:58.240Z,24.32
2023-09-28T12:31:58.181Z,24.28
2023-09-28T12:32:58.263Z,24.21
2023-09-28T12:33:58.171Z,24.16
2023-09-28T12:34:58.133Z,24.12
2023-09-28T12:35:58.137Z,24.10
2023-09-28T12:36:58.115Z,24.08
2023-09-28T12:37:58.165Z,24.09
2023-09-28T12:38:58.114Z,24.09
2023-09-28T12:39:58.090Z,24.13
2023-09-28T12:40:58.134Z,24.20
2023-09-28T12:41:58.071Z,24.21
2023-09-28T12:42:58.166Z,24.18
2023-09-28T12:43:58.064Z,24.15
2023-09-28T12:44:58.036Z,24.15
2023-09-28T12:45:58.041Z,24.18
2023-09-28T12:46:58.018Z,24.27
2023-09-28T12:47:58.115Z,24.32
2023-09-28T12:48:58.003Z,24.39
2023-09-28T12:49:58.003Z,24.45
2023-09-28T12:50:57.979Z,24.47
2023-09-28T12:51:57.977Z,24.52
2023-09-28T12:52:57.971Z,24.58
2023-09-28T12:53:57.956Z,24.68
2023-09-28T12:54:57.944Z,24.84
2023-09-28T12:55:57.972Z,24.93
2023-09-28T12:56:57.996Z,24.96
2023-09-28T12:57:57.938Z,24.93
2023-09-28T12:58:57.908Z,24.96